Time;durP1;ratioP1;P1;durP2;ratioP2;P2;SDS_P1;SDS_P2;PMS_P1;PMS_P2;Temp;Humidity;BMP_temperature;BMP_pressure;BME280_temperature;BME280_humidity;BME280_pressure;Samples;Min_cycle;Max_cycle;Signal;HPM_P1;HPM_P2
2023/03/14 00:01:52;;;;;;;2.50;1.55;;;17.70;56.10;;;;;;5052332;28;20794;-58
2023/03/14 00:04:18;;;;;;;1.30;1.20;;;17.70;56.20;;;;;;5053776;28;20175;-58
2023/03/14 00:06:43;;;;;;;1.65;1.30;;;17.60;56.10;;;;;;5053175;28;20178;-58
2023/03/14 00:09:12;;;;;;;2.75;1.45;;;17.60;56.10;;;;;;5052599;28;20179;-56
2023/03/14 00:11:38;;;;;;;1.70;1.48;;;17.60;56.10;;;;;;5053144;28;20230;-56
2023/03/14 00:14:03;;;;;;;3.97;1.55;;;17.60;56.10;;;;;;5053164;28;20595;-56
2023/03/14 00:16:29;;;;;;;4.20;1.85;;;17.60;56.10;;;;;;5052716;28;20522;-56
2023/03/14 00:18:54;;;;;;;2.15;1.23;;;17.60;56.10;;;;;;5052852;28;20245;-56
2023/03/14 00:21:20;;;;;;;3.78;1.55;;;17.60;56.10;;;;;;5053134;28;20581;-56
2023/03/14 00:23:45;;;;;;;3.10;1.42;;;17.60;56.10;;;;;;5052199;28;20548;-56
2023/03/14 00:26:12;;;;;;;1.60;1.10;;;17.60;56.10;;;;;;5053051;28;20633;-56
2023/03/14 00:28:38;;;;;;;3.53;1.30;;;17.50;56.10;;;;;;5053253;28;20186;-55
2023/03/14 00:31:05;;;;;;;3.08;1.50;;;17.50;56.10;;;;;;5052022;28;20179;-57
2023/03/14 00:33:30;;;;;;;3.08;1.60;;;17.50;56.10;;;;;;5053224;28;20540;-57
2023/03/14 00:35:57;;;;;;;2.03;1.38;;;17.50;56.80;;;;;;5052786;28;20183;-56
2023/03/14 00:38:24;;;;;;;1.83;1.30;;;17.50;56.20;;;;;;5052394;28;20171;-56
2023/03/14 00:40:49;;;;;;;2.63;1.70;;;17.50;56.20;;;;;;5052415;28;20691;-56
2023/03/14 00:43:15;;;;;;;2.58;1.35;;;17.50;56.20;;;;;;5053071;28;20187;-57
2023/03/14 00:45:40;;;;;;;1.67;1.30;;;17.50;56.20;;;;;;5052336;28;20175;-57
2023/03/14 00:48:06;;;;;;;2.20;1.25;;;17.50;56.20;;;;;;5052781;28;20301;-57
2023/03/14 00:50:31;;;;;;;3.38;1.40;;;17.40;56.10;;;;;;5052786;28;20216;-55
2023/03/14 00:52:58;;;;;;;2.35;1.20;;;17.40;56.10;;;;;;5051805;28;20179;-55
2023/03/14 00:55:24;;;;;;;2.33;1.30;;;17.50;56.20;;;;;;5052749;28;20199;-56
2023/03/14 00:57:49;;;;;;;2.80;1.73;;;17.40;56.10;;;;;;5051914;28;20214;-57
2023/03/14 01:00:15;;;;;;;3.33;1.50;;;17.40;56.10;;;;;;5052910;28;20224;-56
2023/03/14 01:02:41;;;;;;;2.50;1.50;;;17.40;56.10;;;;;;5056762;28;20215;-57
2023/03/14 01:05:07;;;;;;;1.95;1.23;;;17.40;56.10;;;;;;5055739;28;20270;-58
2023/03/14 01:07:33;;;;;;;1.90;1.05;;;17.40;56.10;;;;;;5056318;28;20191;-56
2023/03/14 01:09:58;;;;;;;2.22;1.10;;;17.40;56.10;;;;;;5056374;28;20591;-55
2023/03/14 01:12:24;;;;;;;2.15;1.35;;;17.40;56.00;;;;;;5056227;28;20174;-56
2023/03/14 01:14:49;;;;;;;2.65;1.40;;;17.40;56.00;;;;;;5055761;28;20593;-55
2023/03/14 01:17:15;;;;;;;2.53;1.65;;;17.40;56.00;;;;;;5056760;28;20874;-55
2023/03/14 01:19:40;;;;;;;2.72;1.40;;;17.40;56.00;;;;;;5055707;28;20611;-57
2023/03/14 01:22:06;;;;;;;1.25;1.13;;;17.40;56.00;;;;;;5056208;28;20669;-56
2023/03/14 01:24:31;;;;;;;3.35;1.63;;;17.30;55.90;;;;;;5056479;28;20676;-57
2023/03/14 01:26:57;;;;;;;1.75;1.10;;;17.30;55.90;;;;;;5055374;28;20179;-57
2023/03/14 01:29:22;;;;;;;3.00;1.58;;;17.30;55.90;;;;;;5056578;28;20178;-56
2023/03/14 01:31:48;;;;;;;2.60;1.60;;;17.30;55.90;;;;;;5056131;28;20175;-56
2023/03/14 01:34:13;;;;;;;2.15;1.38;;;17.30;55.90;;;;;;5055429;28;20179;-55
2023/03/14 01:36:39;;;;;;;3.05;1.50;;;17.30;55.90;;;;;;5056402;28;20171;-56
2023/03/14 01:39:05;;;;;;;2.85;1.35;;;17.30;55.80;;;;;;5055835;28;20186;-56
2023/03/14 01:41:31;;;;;;;3.03;1.50;;;17.30;55.90;;;;;;5055579;28;20222;-56
2023/03/14 01:44:00;;;;;;;1.65;1.10;;;17.30;55.90;;;;;;5055774;28;20641;-56
2023/03/14 01:46:28;;;;;;;2.38;1.20;;;17.30;55.90;;;;;;5056076;28;20245;-56
2023/03/14 01:49:01;;;;;;;2.88;1.30;;;17.30;55.80;;;;;;5053886;28;20696;-54
2023/03/14 01:51:27;;;;;;;2.28;1.15;;;17.30;55.80;;;;;;5054711;28;20179;-56
2023/03/14 01:53:54;;;;;;;1.52;1.30;;;17.20;55.70;;;;;;5055920;28;20171;-55
2023/03/14 01:56:19;;;;;;;3.67;1.45;;;17.20;55.70;;;;;;5055292;28;20634;-56
2023/03/14 01:58:46;;;;;;;3.65;1.40;;;17.20;55.70;;;;;;5055597;28;20181;-57
2023/03/14 02:01:12;;;;;;;2.38;1.20;;;17.30;55.70;;;;;;5055070;28;20546;-57
2023/03/14 02:03:43;;;;;;;4.47;1.55;;;17.20;55.70;;;;;;5055878;28;20190;-56
2023/03/14 02:06:09;;;;;;;3.25;1.55;;;17.20;55.70;;;;;;5054727;28;20183;-57
2023/03/14 02:08:35;;;;;;;1.92;1.20;;;17.20;55.70;;;;;;5054018;28;20183;-56
2023/03/14 02:11:00;;;;;;;2.25;1.50;;;17.20;55.70;;;;;;5054314;28;20298;-55
2023/03/14 02:13:26;;;;;;;3.10;1.20;;;17.20;55.70;;;;;;5055682;28;20253;-56
2023/03/14 02:15:51;;;;;;;2.42;1.33;;;17.20;55.80;;;;;;5054559;28;20583;-56
2023/03/14 02:18:17;;;;;;;1.55;1.02;;;17.20;55.80;;;;;;5054141;28;20231;-55
2023/03/14 02:21:02;;;;;;;2.33;1.00;;;17.20;55.80;;;;;;5053749;28;20175;-56
2023/03/14 02:23:33;;;;;;;2.67;1.60;;;17.20;55.80;;;;;;5053755;28;20186;-55
2023/03/14 02:26:02;;;;;;;2.83;1.58;;;17.20;55.80;;;;;;5055154;28;20178;-53
2023/03/14 02:28:27;;;;;;;2.88;1.33;;;17.20;55.80;;;;;;5055285;28;20187;-55
2023/03/14 02:30:53;;;;;;;1.63;1.08;;;17.20;55.80;;;;;;5053973;28;20174;-55
2023/03/14 02:33:19;;;;;;;2.50;1.08;;;17.20;55.80;;;;;;5055162;28;20178;-56
2023/03/14 02:35:58;;;;;;;3.33;1.33;;;17.20;55.80;;;;;;5053910;28;20177;-53
2023/03/14 02:38:52;;;;;;;3.67;1.17;;;17.10;55.80;;;;;;5053198;28;20175;-56
2023/03/14 02:41:17;;;;;;;2.85;1.42;;;17.10;55.70;;;;;;5055202;28;20202;-56
2023/03/14 02:43:43;;;;;;;2.28;1.30;;;17.20;55.80;;;;;;5054052;28;20194;-54
2023/03/14 02:46:12;;;;;;;2.67;1.10;;;17.10;55.80;;;;;;5055138;28;20553;-53
2023/03/14 02:48:54;;;;;;;1.42;0.82;;;17.10;55.80;;;;;;5053996;28;20532;-55
2023/03/14 02:51:20;;;;;;;2.97;1.17;;;17.10;55.80;;;;;;5053025;28;20175;-53
2023/03/14 02:53:45;;;;;;;2.53;1.45;;;17.10;55.80;;;;;;5054758;28;20183;-54
2023/03/14 02:56:11;;;;;;;1.85;1.25;;;17.10;55.80;;;;;;5054864;28;20232;-54
2023/03/14 02:58:37;;;;;;;2.10;1.10;;;17.10;55.80;;;;;;5054300;28;20189;-56
2023/03/14 03:01:02;;;;;;;1.23;1.00;;;17.10;55.80;;;;;;5054327;28;20210;-57
2023/03/14 03:03:31;;;;;;;3.30;1.20;;;17.10;55.80;;;;;;5054635;28;20171;-56
2023/03/14 03:05:57;;;;;;;1.20;1.10;;;17.10;55.80;;;;;;5053780;28;20217;-55
2023/03/14 03:08:24;;;;;;;1.40;1.13;;;17.10;55.80;;;;;;5054508;28;20583;-54
2023/03/14 03:10:49;;;;;;;2.22;1.35;;;17.10;55.80;;;;;;5052845;28;20648;-55
2023/03/14 03:13:15;;;;;;;2.55;1.10;;;17.10;55.80;;;;;;5053591;28;20183;-55
2023/03/14 03:15:40;;;;;;;2.45;1.25;;;17.10;55.80;;;;;;5054579;28;20258;-56
2023/03/14 03:18:06;;;;;;;1.50;1.00;;;17.10;55.80;;;;;;5054490;28;20309;-54
2023/03/14 03:20:32;;;;;;;1.55;1.17;;;17.10;55.80;;;;;;5053711;28;20258;-56
2023/03/14 03:22:59;;;;;;;1.10;1.00;;;17.00;55.70;;;;;;5053570;28;20211;-56
2023/03/14 03:25:24;;;;;;;2.20;1.20;;;17.00;55.70;;;;;;5053921;28;20228;-56
2023/03/14 03:27:50;;;;;;;1.92;1.35;;;17.00;55.70;;;;;;5053350;28;20171;-55
2023/03/14 03:30:15;;;;;;;2.28;1.40;;;17.00;55.80;;;;;;5054324;28;20175;-55
2023/03/14 03:32:41;;;;;;;1.90;1.20;;;17.00;55.70;;;;;;5053465;28;20228;-57
2023/03/14 03:35:07;;;;;;;0.85;0.85;;;17.00;55.70;;;;;;5053940;28;20175;-56
2023/03/14 03:37:33;;;;;;;1.65;1.15;;;17.00;55.70;;;;;;5053983;28;20178;-57
2023/03/14 03:40:01;;;;;;;3.40;1.25;;;17.00;55.80;;;;;;5052871;28;20179;-55
2023/03/14 03:42:27;;;;;;;1.48;1.15;;;16.90;55.70;;;;;;5053696;28;20952;-56
2023/03/14 03:44:52;;;;;;;2.25;1.10;;;17.00;55.80;;;;;;5053738;28;20266;-56
2023/03/14 03:47:21;;;;;;;2.65;1.42;;;17.00;55.80;;;;;;5053069;28;20175;-57
2023/03/14 03:49:46;;;;;;;2.13;1.25;;;17.00;55.70;;;;;;5053679;28;20175;-55
2023/03/14 03:52:12;;;;;;;1.65;0.95;;;17.00;55.70;;;;;;5053755;28;20187;-54
2023/03/14 03:54:37;;;;;;;1.55;0.95;;;17.00;55.70;;;;;;5052818;28;20172;-55
2023/03/14 03:57:03;;;;;;;2.03;1.23;;;17.00;55.70;;;;;;5053515;28;20190;-57
2023/03/14 03:59:31;;;;;;;2.10;1.10;;;16.90;55.70;;;;;;5053722;28;20171;-56
2023/03/14 04:01:57;;;;;;;1.80;1.17;;;16.90;55.70;;;;;;5052586;28;20289;-55
2023/03/14 04:04:22;;;;;;;2.63;1.08;;;16.90;55.70;;;;;;5053821;28;20259;-57
2023/03/14 04:06:50;;;;;;;2.38;1.05;;;16.90;55.70;;;;;;5053404;28;20277;-57
2023/03/14 04:09:16;;;;;;;2.03;1.17;;;16.90;55.70;;;;;;5052590;28;20214;-56
2023/03/14 04:11:41;;;;;;;2.25;1.17;;;16.90;55.70;;;;;;5053015;28;20199;-55
2023/03/14 04:14:07;;;;;;;1.92;1.35;;;16.90;55.70;;;;;;5053328;28;20187;-55
2023/03/14 04:16:33;;;;;;;1.65;0.93;;;16.90;55.70;;;;;;5052683;28;20178;-55
2023/03/14 04:18:58;;;;;;;2.97;1.10;;;16.90;55.70;;;;;;5052628;28;20746;-56
2023/03/14 04:21:24;;;;;;;1.92;1.05;;;16.90;55.70;;;;;;5053155;28;20218;-56
2023/03/14 04:23:49;;;;;;;2.03;1.20;;;16.90;55.70;;;;;;5052182;28;20167;-56
2023/03/14 04:26:15;;;;;;;1.85;1.02;;;16.90;55.70;;;;;;5053252;28;20175;-56
2023/03/14 04:28:40;;;;;;;1.23;1.00;;;16.90;55.70;;;;;;5053036;28;20618;-56
2023/03/14 04:31:10;;;;;;;3.13;1.20;;;16.90;55.70;;;;;;5052020;28;20183;-53
2023/03/14 04:33:37;;;;;;;2.42;1.33;;;16.90;55.70;;;;;;5053173;28;20202;-56
2023/03/14 04:36:03;;;;;;;2.50;1.10;;;16.90;55.70;;;;;;5051243;28;20183;-54
2023/03/14 04:38:28;;;;;;;4.82;1.38;;;16.80;55.60;;;;;;5051710;28;20556;-56
2023/03/14 04:40:54;;;;;;;2.63;1.25;;;16.90;55.70;;;;;;5052486;28;20638;-56
2023/03/14 04:43:19;;;;;;;3.13;1.35;;;16.90;55.70;;;;;;5052340;28;20179;-56
2023/03/14 04:45:45;;;;;;;2.47;1.10;;;16.80;55.60;;;;;;5052441;28;20627;-57
2023/03/14 04:48:10;;;;;;;1.55;0.90;;;16.80;55.60;;;;;;5052831;28;20182;-56
2023/03/14 04:50:36;;;;;;;3.05;1.08;;;16.90;55.70;;;;;;5052045;28;20186;-53
2023/03/14 04:53:01;;;;;;;4.13;1.45;;;16.80;55.60;;;;;;5052328;28;20183;-55
2023/03/14 04:55:27;;;;;;;2.13;1.25;;;16.80;55.60;;;;;;5052688;28;20183;-55
2023/03/14 04:57:52;;;;;;;2.17;1.55;;;16.80;55.60;;;;;;5051628;28;20267;-56
2023/03/14 05:00:18;;;;;;;1.95;1.10;;;16.80;55.50;;;;;;5052881;28;20270;-57
2023/03/14 05:02:44;;;;;;;2.90;1.10;;;16.80;55.60;;;;;;5052398;28;20301;-57
2023/03/14 05:05:09;;;;;;;1.98;1.00;;;16.80;55.50;;;;;;5052012;28;20537;-58
2023/03/14 05:07:35;;;;;;;2.42;1.00;;;16.80;55.50;;;;;;5052646;28;20174;-57
2023/03/14 05:10:00;;;;;;;2.05;1.10;;;16.80;55.50;;;;;;5052325;28;20335;-56
2023/03/14 05:12:26;;;;;;;2.10;1.00;;;16.80;55.50;;;;;;5051775;28;20189;-56
2023/03/14 05:14:51;;;;;;;2.20;1.10;;;16.80;55.50;;;;;;5052356;28;20263;-56
2023/03/14 05:17:18;;;;;;;4.18;1.27;;;16.80;55.50;;;;;;5052406;28;20634;-54
2023/03/14 05:19:44;;;;;;;2.47;1.15;;;16.80;55.50;;;;;;5051416;28;20230;-55
2023/03/14 05:22:09;;;;;;;2.92;1.20;;;16.80;55.50;;;;;;5052422;28;20635;-56
2023/03/14 05:24:35;;;;;;;1.73;1.13;;;16.80;55.50;;;;;;5052719;28;20186;-56
2023/03/14 05:27:01;;;;;;;2.20;1.10;;;16.80;55.60;;;;;;5051491;28;20837;-56
2023/03/14 05:29:26;;;;;;;3.25;1.17;;;16.80;55.50;;;;;;5052492;28;20262;-55
2023/03/14 05:31:52;;;;;;;2.08;1.00;;;16.80;55.60;;;;;;5052348;28;20804;-56
2023/03/14 05:34:17;;;;;;;1.77;1.00;;;16.80;55.60;;;;;;5051734;28;20572;-56
2023/03/14 05:36:43;;;;;;;3.08;1.30;;;16.70;55.50;;;;;;5051876;28;20699;-56
2023/03/14 05:39:08;;;;;;;2.55;1.35;;;16.70;55.50;;;;;;5052010;28;20183;-57
2023/03/14 05:41:34;;;;;;;3.08;1.23;;;16.70;55.50;;;;;;5051947;28;20214;-55
2023/03/14 05:43:59;;;;;;;2.47;1.20;;;16.70;55.50;;;;;;5052163;28;20167;-56
2023/03/14 05:46:25;;;;;;;2.42;1.30;;;16.70;55.50;;;;;;5052020;28;20686;-57
2023/03/14 05:48:50;;;;;;;3.33;1.45;;;16.70;55.50;;;;;;5055947;28;20167;-56
2023/03/14 05:51:16;;;;;;;3.00;1.02;;;16.70;55.50;;;;;;5055838;28;20197;-55
2023/03/14 05:53:41;;;;;;;1.58;1.17;;;16.70;55.50;;;;;;5055190;28;20224;-54
2023/03/14 05:56:07;;;;;;;2.30;1.10;;;16.70;55.50;;;;;;5056209;28;20163;-54
2023/03/14 05:58:33;;;;;;;2.30;1.10;;;16.70;55.50;;;;;;5055952;28;20266;-57
2023/03/14 06:01:02;;;;;;;2.92;1.20;;;16.70;55.50;;;;;;5054795;28;20602;-57
2023/03/14 06:03:27;;;;;;;2.60;1.10;;;16.70;55.50;;;;;;5055784;28;20187;-58
2023/03/14 06:05:53;;;;;;;0.98;0.70;;;16.70;55.50;;;;;;5055049;28;20656;-56
2023/03/14 06:08:18;;;;;;;3.30;1.52;;;16.70;55.50;;;;;;5055101;28;20179;-57
2023/03/14 06:10:44;;;;;;;4.13;1.30;;;16.70;55.50;;;;;;5055379;28;20171;-56
2023/03/14 06:13:09;;;;;;;2.40;1.15;;;16.70;55.50;;;;;;5055620;28;20175;-55
2023/03/14 06:15:35;;;;;;;1.65;1.00;;;16.70;55.50;;;;;;5054819;28;20179;-54
2023/03/14 06:18:01;;;;;;;3.38;1.10;;;16.70;55.50;;;;;;5055088;28;20465;-52
2023/03/14 06:20:26;;;;;;;3.13;1.05;;;16.70;55.60;;;;;;5055464;28;20726;-57
2023/03/14 06:22:52;;;;;;;1.70;1.10;;;16.70;55.60;;;;;;5054573;28;20214;-56
2023/03/14 06:25:17;;;;;;;3.75;1.45;;;16.70;55.60;;;;;;5055523;28;20171;-55
2023/03/14 06:27:43;;;;;;;1.92;1.38;;;16.60;55.50;;;;;;5055266;28;20236;-55
2023/03/14 06:30:09;;;;;;;2.28;1.20;;;16.60;55.50;;;;;;5054858;28;20171;-55
2023/03/14 06:32:35;;;;;;;2.10;1.10;;;16.70;55.60;;;;;;5055225;28;20202;-58
2023/03/14 06:35:00;;;;;;;1.60;1.00;;;16.60;55.50;;;;;;5054955;28;20175;-58
2023/03/14 06:37:30;;;;;;;1.33;1.08;;;16.60;55.60;;;;;;5054251;28;20206;-56
2023/03/14 06:39:55;;;;;;;2.30;1.10;;;16.60;55.60;;;;;;5055064;28;20548;-56
2023/03/14 06:42:21;;;;;;;2.83;1.15;;;16.60;55.60;;;;;;5055149;28;20673;-57
2023/03/14 06:44:47;;;;;;;1.38;1.13;;;16.60;55.60;;;;;;5054242;28;20217;-57
2023/03/14 06:47:12;;;;;;;2.45;1.27;;;16.60;55.60;;;;;;5055018;28;20551;-56
2023/03/14 06:49:38;;;;;;;1.92;1.20;;;16.60;55.60;;;;;;5054222;28;20171;-52
2023/03/14 06:52:03;;;;;;;1.58;1.10;;;16.60;55.60;;;;;;5054803;28;20581;-55
2023/03/14 06:54:29;;;;;;;2.83;0.95;;;16.60;55.60;;;;;;5054739;28;20645;-55
2023/03/14 06:56:54;;;;;;;1.85;1.13;;;16.60;55.60;;;;;;5053783;28;20215;-56
2023/03/14 06:59:20;;;;;;;1.27;0.80;;;16.60;55.60;;;;;;5053896;28;20179;-57
2023/03/14 07:01:45;;;;;;;1.85;0.90;;;16.60;55.60;;;;;;5054242;28;20203;-57
2023/03/14 07:04:11;;;;;;;1.85;1.00;;;16.60;55.60;;;;;;5053894;28;20622;-58
2023/03/14 07:06:36;;;;;;;1.67;0.88;;;16.60;56.30;;;;;;5054884;28;20171;-57
2023/03/14 07:09:02;;;;;;;2.30;1.10;;;16.60;55.70;;;;;;5054371;28;20217;-56
2023/03/14 07:11:28;;;;;;;2.30;1.00;;;16.60;55.70;;;;;;5053831;28;20179;-55
2023/03/14 07:13:53;;;;;;;1.42;1.02;;;16.60;55.70;;;;;;5054264;28;20206;-55
2023/03/14 07:16:19;;;;;;;1.70;0.80;;;16.60;55.70;;;;;;5054261;28;20638;-54
2023/03/14 07:18:45;;;;;;;1.38;0.90;;;16.60;55.70;;;;;;5053179;28;20227;-56
2023/03/14 07:21:11;;;;;;;1.52;1.02;;;16.60;55.70;;;;;;5054397;28;20295;-55
2023/03/14 07:23:36;;;;;;;1.88;0.90;;;16.60;55.70;;;;;;5054312;28;20182;-56
2023/03/14 07:26:02;;;;;;;1.95;1.10;;;16.50;55.70;;;;;;5053136;28;20258;-56
2023/03/14 07:28:27;;;;;;;1.65;1.08;;;16.50;55.80;;;;;;5054178;28;20258;-55
2023/03/14 07:30:53;;;;;;;1.02;0.85;;;16.50;56.10;;;;;;5053920;28;20261;-56
2023/03/14 07:33:19;;;;;;;1.38;1.00;;;16.50;55.80;;;;;;5053432;28;20182;-57
2023/03/14 07:35:47;;;;;;;1.15;0.80;;;16.60;55.90;;;;;;5053876;28;20171;-56
2023/03/14 07:38:12;;;;;;;2.45;1.13;;;16.60;55.90;;;;;;5054239;28;20210;-57
2023/03/14 07:40:38;;;;;;;1.08;0.95;;;16.50;55.80;;;;;;5052847;28;20268;-57
2023/03/14 07:43:03;;;;;;;1.20;1.00;;;16.50;55.90;;;;;;5053577;28;20321;-57
2023/03/14 07:45:29;;;;;;;1.58;1.10;;;16.50;55.80;;;;;;5053864;28;20256;-66
2023/03/14 07:47:57;;;;;;;1.42;0.80;;;16.60;56.00;;;;;;5052536;28;20201;-66
2023/03/14 07:50:23;;;;;;;1.15;0.90;;;16.60;55.80;;;;;;5053715;28;20182;-66
2023/03/14 07:52:49;;;;;;;1.55;0.90;;;16.60;55.70;;;;;;5052807;28;20181;-63
2023/03/14 07:55:14;;;;;;;3.08;1.17;;;16.60;55.90;;;;;;5053179;28;20189;-65
2023/03/14 07:57:40;;;;;;;6.40;1.08;;;16.60;56.40;;;;;;5053431;28;20171;-65
2023/03/14 08:00:07;;;;;;;6.55;1.23;;;16.70;56.20;;;;;;5052076;28;20270;-66
2023/03/14 08:02:32;;;;;;;4.10;1.17;;;16.60;56.40;;;;;;5052997;28;20211;-65
2023/03/14 08:04:58;;;;;;;2.05;0.90;;;16.60;56.40;;;;;;5052983;28;20163;-64
2023/03/14 08:07:23;;;;;;;2.47;0.95;;;16.70;56.50;;;;;;5052691;28;20175;-66
2023/03/14 08:09:49;;;;;;;3.22;1.00;;;16.70;56.50;;;;;;5056940;28;20326;-65
2023/03/14 08:12:15;;;;;;;3.38;1.15;;;16.60;56.40;;;;;;5063993;28;20190;-64
2023/03/14 08:14:41;;;;;;;3.45;1.20;;;16.60;56.40;;;;;;5058399;28;20630;-65
2023/03/14 08:17:08;;;;;;;2.28;1.13;;;16.60;56.70;;;;;;5052939;28;20205;-64
2023/03/14 08:19:33;;;;;;;2.25;1.00;;;16.60;56.60;;;;;;5070058;28;20279;-64
2023/03/14 08:21:59;;;;;;;4.95;1.20;;;16.50;56.50;;;;;;5071872;28;20213;-64
2023/03/14 08:24:24;;;;;;;2.70;1.30;;;16.50;56.50;;;;;;5072873;28;20257;-64
2023/03/14 08:26:50;;;;;;;1.40;0.90;;;16.50;56.50;;;;;;5064151;28;20214;-65
2023/03/14 08:29:15;;;;;;;2.10;0.90;;;16.60;56.50;;;;;;5051418;28;20266;-65
2023/03/14 08:31:41;;;;;;;1.25;0.82;;;16.50;56.50;;;;;;5052574;28;20179;-66
2023/03/14 08:34:06;;;;;;;1.25;0.77;;;16.50;56.60;;;;;;5052548;28;20174;-66
2023/03/14 08:36:32;;;;;;;1.63;0.80;;;16.50;56.40;;;;;;5052066;28;20301;-66
2023/03/14 08:38:57;;;;;;;1.23;0.82;;;16.50;56.40;;;;;;5052352;28;20171;-65
2023/03/14 08:41:23;;;;;;;0.95;0.80;;;16.50;56.30;;;;;;5052446;28;20689;-65
2023/03/14 08:43:49;;;;;;;1.50;0.70;;;16.50;56.40;;;;;;5058989;28;20174;-64
2023/03/14 08:46:14;;;;;;;2.13;0.77;;;16.40;56.30;;;;;;5072455;28;20550;-64
2023/03/14 08:48:40;;;;;;;1.73;0.75;;;16.50;56.40;;;;;;5072804;28;20221;-64
2023/03/14 08:51:10;;;;;;;2.03;0.90;;;16.50;56.40;;;;;;5071710;28;20171;-64
2023/03/14 08:53:36;;;;;;;2.78;0.80;;;16.50;56.30;;;;;;5072323;28;20536;-64
2023/03/14 08:56:02;;;;;;;1.52;0.73;;;16.50;56.30;;;;;;5072011;28;20178;-65
2023/03/14 08:58:27;;;;;;;0.98;0.80;;;16.50;56.60;;;;;;5071608;28;20243;-66
2023/03/14 09:00:53;;;;;;;1.52;0.98;;;16.50;56.40;;;;;;5071831;28;20232;-64
2023/03/14 09:03:18;;;;;;;1.40;0.70;;;16.50;56.20;;;;;;5071766;28;20200;-65
2023/03/14 09:05:44;;;;;;;1.90;0.70;;;16.50;56.30;;;;;;5071997;28;20167;-64
2023/03/14 09:08:09;;;;;;;0.68;0.60;;;16.50;56.20;;;;;;5072447;28;20181;-64
2023/03/14 09:10:35;;;;;;;1.13;0.60;;;16.50;56.40;;;;;;5071430;28;20171;-64
2023/03/14 09:13:00;;;;;;;1.77;0.65;;;16.50;56.10;;;;;;5071879;28;20178;-64
2023/03/14 09:15:26;;;;;;;1.55;0.70;;;16.50;56.10;;;;;;5072294;28;20171;-64
2023/03/14 09:17:51;;;;;;;2.20;0.82;;;16.50;56.20;;;;;;5064222;28;20285;-63
2023/03/14 09:20:17;;;;;;;1.45;0.60;;;16.50;56.00;;;;;;5052061;28;20199;-64
2023/03/14 09:22:42;;;;;;;0.82;0.70;;;16.50;55.90;;;;;;5054393;28;20219;-64
2023/03/14 09:25:08;;;;;;;1.25;0.55;;;16.60;56.00;;;;;;5055294;28;20671;-65
2023/03/14 09:27:34;;;;;;;1.50;0.82;;;16.50;56.00;;;;;;5055601;28;20175;-65
2023/03/14 09:29:59;;;;;;;1.17;0.50;;;16.40;55.80;;;;;;5055473;28;20474;-66
2023/03/14 09:32:25;;;;;;;1.42;0.70;;;16.50;56.10;;;;;;5054651;28;20633;-66
2023/03/14 09:34:50;;;;;;;1.20;0.68;;;16.50;56.00;;;;;;5055196;28;20650;-65
2023/03/14 09:37:16;;;;;;;1.08;0.80;;;16.50;55.80;;;;;;5055283;28;20629;-66
2023/03/14 09:39:42;;;;;;;0.70;0.70;;;16.60;55.80;;;;;;5054151;28;20176;-65
2023/03/14 09:42:08;;;;;;;0.50;0.50;;;16.60;56.00;;;;;;5055209;28;20206;-64
2023/03/14 09:44:36;;;;;;;0.80;0.50;;;16.70;56.30;;;;;;5053658;28;20167;-64
2023/03/14 09:47:07;;;;;;;1.35;0.60;;;16.70;55.80;;;;;;5054082;28;20194;-64
2023/03/14 09:49:34;;;;;;;2.55;0.85;;;16.80;55.90;;;;;;5053813;28;20179;-64
2023/03/14 09:52:01;;;;;;;1.48;0.60;;;16.80;55.80;;;;;;5053391;28;20622;-64
2023/03/14 09:54:44;;;;;;;2.03;0.60;;;16.80;56.10;;;;;;5053089;28;20179;-65
2023/03/14 09:57:18;;;;;;;2.33;0.95;;;16.80;56.00;;;;;;5053597;28;20179;-65
2023/03/14 09:59:44;;;;;;;1.23;0.57;;;16.80;56.50;;;;;;5054118;28;20178;-66
2023/03/14 10:02:21;;;;;;;1.05;0.60;;;16.80;56.30;;;;;;5053751;28;20268;-65
2023/03/14 10:04:47;;;;;;;2.28;0.90;;;16.80;56.30;;;;;;5054569;28;20178;-66
2023/03/14 10:07:19;;;;;;;1.15;0.60;;;16.80;56.10;;;;;;5054231;28;20266;-66
2023/03/14 10:09:49;;;;;;;1.35;0.60;;;16.80;56.10;;;;;;5054242;28;20171;-64
2023/03/14 10:12:15;;;;;;;1.20;0.65;;;16.70;56.30;;;;;;5054821;28;20228;-65
2023/03/14 10:14:50;;;;;;;0.82;0.60;;;16.80;56.60;;;;;;5052035;28;20254;-64
2023/03/14 10:17:17;;;;;;;1.23;0.70;;;16.70;56.60;;;;;;5056488;28;20182;-64
2023/03/14 10:19:54;;;;;;;1.05;0.73;;;16.70;56.60;;;;;;5072967;28;20263;-65
2023/03/14 10:22:20;;;;;;;1.65;0.52;;;16.80;56.60;;;;;;5072976;28;20330;-65
2023/03/14 10:24:55;;;;;;;1.13;0.80;;;16.80;56.60;;;;;;5072754;28;20178;-65
2023/03/14 10:27:26;;;;;;;3.05;0.80;;;16.70;56.40;;;;;;5074565;28;20188;-65
2023/03/14 10:29:53;;;;;;;1.83;0.98;;;16.70;56.50;;;;;;5073395;28;20255;-65
2023/03/14 10:32:19;;;;;;;0.90;0.70;;;16.70;56.60;;;;;;5074119;28;20182;-66
2023/03/14 10:34:54;;;;;;;1.95;0.93;;;16.70;56.30;;;;;;5072068;28;20244;-65
2023/03/14 10:37:25;;;;;;;3.10;0.85;;;16.70;56.60;;;;;;5073214;28;20184;-65
2023/03/14 10:39:55;;;;;;;1.08;0.70;;;16.60;56.80;;;;;;5072847;28;20170;-65
2023/03/14 10:42:34;;;;;;;1.13;0.70;;;16.60;56.90;;;;;;5072049;28;20202;-64
2023/03/14 10:45:22;;;;;;;2.05;0.70;;;16.60;56.80;;;;;;5072625;28;20162;-63
2023/03/14 10:47:48;;;;;;;1.20;0.70;;;16.60;56.90;;;;;;5058286;28;20166;-63
2023/03/14 10:50:27;;;;;;;0.85;0.75;;;16.70;56.90;;;;;;5073452;28;20220;-63
2023/03/14 10:52:53;;;;;;;1.48;0.70;;;16.70;56.90;;;;;;5073692;28;20604;-63
2023/03/14 10:55:18;;;;;;;2.40;0.88;;;16.70;56.80;;;;;;5073765;28;20178;-65
2023/03/14 10:57:44;;;;;;;1.10;0.90;;;16.60;56.70;;;;;;5073309;28;20232;-65
2023/03/14 11:00:17;;;;;;;2.13;1.00;;;16.60;56.40;;;;;;5073867;28;20174;-65
2023/03/14 11:03:00;;;;;;;2.80;1.00;;;16.60;56.20;;;;;;5072886;28;20218;-65
2023/03/14 11:05:29;;;;;;;1.67;0.75;;;16.60;56.50;;;;;;5072518;28;20186;-65
2023/03/14 11:08:09;;;;;;;1.30;0.75;;;16.70;56.70;;;;;;5073355;28;20178;-64
2023/03/14 11:10:40;;;;;;;2.08;0.80;;;16.70;56.30;;;;;;5056532;28;20166;-64
2023/03/14 11:13:25;;;;;;;2.25;1.23;;;16.80;55.80;;;;;;5072435;28;20169;-63
2023/03/14 11:15:58;;;;;;;1.85;0.85;;;16.80;55.80;;;;;;5073362;28;20174;-64
2023/03/14 11:18:31;;;;;;;2.05;0.63;;;16.80;55.90;;;;;;5060045;28;20218;-64
2023/03/14 11:21:10;;;;;;;0.95;0.73;;;16.80;55.80;;;;;;5051822;28;20178;-64
2023/03/14 11:23:50;;;;;;;3.85;1.08;;;16.90;55.60;;;;;;5052633;28;20191;-65
2023/03/14 11:26:24;;;;;;;3.03;1.20;;;17.00;55.40;;;;;;5052271;28;20171;-64
2023/03/14 11:28:52;;;;;;;4.63;0.90;;;17.00;55.30;;;;;;5052758;28;20185;-65
2023/03/14 11:31:26;;;;;;;3.90;1.25;;;17.10;55.20;;;;;;5051794;28;20209;-66
2023/03/14 11:33:56;;;;;;;5.25;1.42;;;17.10;55.00;;;;;;5052843;28;20630;-65
2023/03/14 11:36:35;;;;;;;4.75;1.48;;;17.10;55.00;;;;;;5052944;28;20251;-65
2023/03/14 11:39:01;;;;;;;4.55;1.20;;;17.20;54.90;;;;;;5048761;28;20175;-63
2023/03/14 11:41:38;;;;;;;5.07;1.27;;;17.20;55.00;;;;;;5051267;28;20226;-65
2023/03/14 11:44:10;;;;;;;3.42;1.60;;;17.20;55.00;;;;;;5049866;28;20171;-64
2023/03/14 11:46:41;;;;;;;3.42;1.50;;;17.10;55.10;;;;;;5051302;28;20175;-65
2023/03/14 11:49:24;;;;;;;3.70;1.30;;;17.10;55.30;;;;;;5051997;28;20298;-64
2023/03/14 11:51:52;;;;;;;2.88;1.48;;;17.10;55.40;;;;;;5051650;28;20168;-65
2023/03/14 11:54:55;;;;;;;5.00;1.30;;;17.10;55.30;;;;;;5051113;28;20190;-65
2023/03/14 11:57:20;;;;;;;2.10;1.10;;;17.10;55.40;;;;;;5052698;28;20508;-66
2023/03/14 11:59:52;;;;;;;6.03;1.45;;;17.20;55.30;;;;;;5051812;28;20179;-66
2023/03/14 12:02:25;;;;;;;2.92;1.70;;;17.20;55.10;;;;;;5051314;28;20642;-72
2023/03/14 12:04:54;;;;;;;5.20;1.30;;;17.30;55.00;;;;;;5051638;28;20177;-70
2023/03/14 12:07:21;;;;;;;4.57;1.40;;;17.30;54.90;;;;;;5051819;28;20626;-68
2023/03/14 12:09:50;;;;;;;5.53;1.73;;;17.40;55.00;;;;;;5052109;28;20254;-68
2023/03/14 12:12:22;;;;;;;6.53;1.77;;;17.50;54.90;;;;;;5051117;28;20190;-68
2023/03/14 12:14:53;;;;;;;2.05;1.10;;;17.50;54.80;;;;;;5049983;28;20535;-70
2023/03/14 12:17:39;;;;;;;3.20;1.77;;;17.60;54.70;;;;;;5053225;28;20183;-70
2023/03/14 12:20:14;;;;;;;3.72;1.80;;;17.60;54.70;;;;;;5070201;28;20229;-68
2023/03/14 12:22:43;;;;;;;4.57;1.73;;;17.60;54.70;;;;;;5072445;28;20210;-70
2023/03/14 12:25:29;;;;;;;3.72;1.58;;;17.70;54.60;;;;;;5071199;28;20230;-70
2023/03/14 12:27:54;;;;;;;5.70;1.33;;;17.70;54.50;;;;;;5071433;28;20175;-71
2023/03/14 12:30:29;;;;;;;4.45;1.55;;;17.70;54.50;;;;;;5072250;28;20257;-73
2023/03/14 12:33:10;;;;;;;4.30;1.50;;;17.70;54.40;;;;;;5071917;28;20710;-73
2023/03/14 12:35:44;;;;;;;3.92;1.40;;;17.70;54.40;;;;;;5071361;28;20183;-72
2023/03/14 12:38:13;;;;;;;3.22;1.60;;;17.60;54.60;;;;;;5072199;28;20189;-71
2023/03/14 12:41:01;;;;;;;3.92;1.38;;;17.60;54.50;;;;;;5070759;28;20625;-71
2023/03/14 12:43:30;;;;;;;5.07;1.60;;;17.70;54.50;;;;;;5071442;28;20193;-71
2023/03/14 12:46:17;;;;;;;2.22;1.35;;;17.70;54.30;;;;;;5071818;28;20261;-68
2023/03/14 12:49:09;;;;;;;5.82;1.80;;;17.70;54.20;;;;;;5071307;28;20178;-64
2023/03/14 12:51:43;;;;;;;4.38;1.40;;;17.70;54.20;;;;;;5069702;28;20194;-64